createdAt,value
2022-09-15T00:01:11.682Z,12.62
2022-09-15T00:03:39.411Z,11.66
2022-09-15T00:06:06.680Z,12.59
2022-09-15T00:08:33.507Z,11.99
2022-09-15T00:11:14.791Z,12.52
2022-09-15T00:13:41.863Z,11.78
2022-09-15T00:16:11.665Z,12.26
2022-09-15T00:18:41.716Z,12.39
2022-09-15T00:21:11.248Z,12.38
2022-09-15T00:23:38.663Z,12.30
2022-09-15T00:26:10.220Z,12.26
2022-09-15T00:28:37.747Z,12.18
2022-09-15T00:31:09.708Z,11.97
2022-09-15T00:34:10.454Z,11.94
2022-09-15T00:36:37.194Z,11.00
2022-09-15T00:39:04.789Z,11.73
2022-09-15T00:41:31.512Z,11.52
2022-09-15T00:44:04.368Z,11.22
2022-09-15T00:46:37.003Z,11.85
2022-09-15T00:49:24.450Z,11.86
2022-09-15T00:52:08.584Z,11.79
2022-09-15T00:54:37.565Z,11.15
2022-09-15T00:57:11.610Z,11.75
2022-09-15T00:59:40.332Z,11.29
2022-09-15T01:02:23.602Z,10.58
2022-09-15T01:04:57.386Z,11.61
2022-09-15T01:07:35.524Z,11.59
2022-09-15T01:10:08.281Z,11.60
2022-09-15T01:12:34.963Z,11.55
2022-09-15T01:15:01.940Z,11.48
2022-09-15T01:17:40.271Z,10.81
2022-09-15T01:20:16.023Z,11.39
2022-09-15T01:23:00.261Z,11.40
2022-09-15T01:26:10.055Z,11.42
2022-09-15T01:28:39.435Z,11.42
2022-09-15T01:32:04.709Z,11.42
2022-09-15T01:34:41.679Z,10.98
2022-09-15T01:37:16.491Z,11.48
2022-09-15T01:39:48.070Z,11.49
2022-09-15T01:42:17.191Z,11.43
2022-09-15T01:44:55.665Z,10.71
2022-09-15T01:47:24.361Z,11.32
2022-09-15T01:49:56.522Z,11.27
2022-09-15T01:52:24.653Z,11.26
2022-09-15T01:54:55.888Z,11.25
2022-09-15T01:57:23.058Z,11.15
2022-09-15T01:59:51.412Z,11.31
2022-09-15T02:02:24.995Z,11.30
2022-09-15T02:05:20.614Z,11.07
2022-09-15T02:07:59.045Z,11.27
2022-09-15T02:10:37.216Z,11.20
2022-09-15T02:13:17.960Z,11.00
2022-09-15T02:15:48.451Z,11.16
2022-09-15T02:18:32.775Z,11.19
2022-09-15T02:21:08.788Z,11.19
2022-09-15T02:23:40.192Z,11.17
2022-09-15T02:26:17.422Z,11.09
2022-09-15T02:28:47.775Z,10.94
2022-09-15T02:31:17.920Z,10.97
2022-09-15T02:34:06.752Z,11.04
2022-09-15T02:36:34.097Z,10.40
2022-09-15T02:39:07.791Z,10.44
2022-09-15T02:41:36.662Z,10.77
2022-09-15T02:44:03.784Z,10.90
2022-09-15T02:46:30.288Z,10.76
2022-09-15T02:48:57.005Z,10.90
2022-09-15T02:51:23.500Z,10.72
2022-09-15T02:53:50.073Z,10.94
2022-09-15T02:56:17.180Z,10.06
2022-09-15T02:58:44.089Z,10.48
2022-09-15T03:01:15.096Z,10.98
2022-09-15T03:03:44.373Z,11.02
2022-09-15T03:06:19.663Z,11.03
2022-09-15T03:08:54.644Z,10.62
2022-09-15T03:11:23.938Z,10.96
2022-09-15T03:13:55.044Z,10.89
2022-09-15T03:16:21.947Z,10.80
2022-09-15T03:18:48.976Z,10.89
2022-09-15T03:21:17.242Z,10.58
2022-09-15T03:23:44.559Z,10.84
2022-09-15T03:26:11.695Z,10.79
2022-09-15T03:28:39.067Z,10.82
2022-09-15T03:31:06.983Z,10.83
2022-09-15T03:33:34.019Z,10.85
2022-09-15T03:36:00.763Z,10.85
2022-09-15T03:38:27.309Z,10.84
2022-09-15T03:41:12.467Z,10.57
2022-09-15T03:43:40.062Z,10.28
2022-09-15T03:46:08.135Z,10.81
2022-09-15T03:48:36.276Z,10.80
2022-09-15T03:51:04.434Z,10.55
2022-09-15T03:53:33.461Z,10.10
2022-09-15T03:56:24.978Z,10.77
2022-09-15T03:58:52.227Z,10.79
2022-09-15T04:01:19.905Z,10.78
2022-09-15T04:03:50.845Z,10.25
2022-09-15T04:06:19.442Z,10.69
2022-09-15T04:08:46.011Z,10.51
2022-09-15T04:11:13.670Z,10.91
2022-09-15T04:13:42.069Z,10.56
2022-09-15T04:16:11.508Z,10.95
2022-09-15T04:18:38.419Z,10.85
2022-09-15T04:21:08.337Z,10.83
2022-09-15T04:23:35.240Z,11.11
2022-09-15T04:26:07.519Z,10.92
2022-09-15T04:28:36.483Z,11.25
2022-09-15T04:31:06.013Z,10.86
2022-09-15T04:33:33.006Z,11.26
2022-09-15T04:36:00.894Z,10.43
2022-09-15T04:38:27.984Z,11.34
2022-09-15T04:40:55.443Z,11.30
2022-09-15T04:43:22.258Z,11.25
2022-09-15T04:45:49.219Z,11.21
2022-09-15T04:48:15.691Z,10.96
2022-09-15T04:50:42.612Z,11.19
2022-09-15T04:53:09.259Z,10.88
2022-09-15T04:55:36.275Z,11.22
2022-09-15T04:58:03.578Z,11.44
2022-09-15T05:00:32.067Z,11.52
2022-09-15T05:02:59.583Z,11.60
2022-09-15T05:05:26.956Z,11.83
2022-09-15T05:07:53.584Z,11.75
2022-09-15T05:10:20.493Z,12.08
2022-09-15T05:12:46.955Z,12.19
2022-09-15T05:15:13.455Z,11.81
2022-09-15T05:17:40.057Z,11.92
2022-09-15T05:20:06.752Z,11.30
2022-09-15T05:22:33.394Z,12.15
2022-09-15T05:25:00.001Z,12.49
2022-09-15T05:27:26.480Z,12.59
2022-09-15T05:30:09.785Z,12.68
2022-09-15T05:32:39.463Z,12.74
2022-09-15T05:35:06.897Z,11.06
2022-09-15T05:37:33.774Z,12.86
2022-09-15T05:40:00.561Z,12.92
2022-09-15T05:42:30.233Z,12.96
2022-09-15T05:44:56.741Z,13.06
2022-09-15T05:47:23.747Z,13.13
2022-09-15T05:49:50.737Z,13.08
2022-09-15T05:52:17.237Z,13.07
2022-09-15T05:54:43.748Z,12.90
2022-09-15T05:57:10.294Z,12.54
2022-09-15T05:59:39.151Z,13.06
2022-09-15T06:02:05.996Z,13.22
2022-09-15T06:04:34.143Z,13.29
2022-09-15T06:07:00.705Z,13.40
2022-09-15T06:09:27.291Z,12.93
2022-09-15T06:11:53.801Z,13.54
2022-09-15T06:14:20.676Z,13.53
2022-09-15T06:16:50.076Z,13.62
2022-09-15T06:19:16.725Z,13.44
2022-09-15T06:21:43.421Z,13.77
2022-09-15T06:24:12.412Z,13.06
2022-09-15T06:26:39.095Z,13.83
2022-09-15T06:29:06.000Z,12.40
2022-09-15T06:31:33.720Z,13.85
2022-09-15T06:34:00.683Z,14.07
2022-09-15T06:36:29.693Z,13.74
2022-09-15T06:38:57.052Z,14.08
2022-09-15T06:41:23.837Z,14.02
2022-09-15T06:43:50.497Z,14.04
2022-09-15T06:46:20.062Z,14.20
2022-09-15T06:48:48.480Z,14.36
2022-09-15T06:51:17.120Z,14.06
2022-09-15T06:53:44.615Z,14.66
2022-09-15T06:56:22.717Z,14.80
2022-09-15T06:58:50.171Z,15.00
2022-09-15T07:01:22.780Z,14.55
2022-09-15T07:03:50.219Z,15.31
2022-09-15T07:06:17.117Z,15.40
2022-09-15T07:08:44.264Z,15.10
2022-09-15T07:11:11.113Z,15.55
2022-09-15T07:13:38.030Z,15.39
2022-09-15T07:16:07.484Z,15.57
2022-09-15T07:18:34.430Z,15.29
2022-09-15T07:21:03.292Z,15.98
2022-09-15T07:23:30.396Z,16.04
2022-09-15T07:26:13.571Z,16.09
2022-09-15T07:28:42.332Z,16.10
2022-09-15T07:31:11.247Z,15.19
2022-09-15T07:33:37.977Z,15.91
2022-09-15T07:36:06.661Z,15.42
2022-09-15T07:38:34.739Z,15.63
2022-09-15T07:41:22.166Z,15.30
2022-09-15T07:43:50.572Z,13.87
2022-09-15T07:46:19.066Z,15.55
2022-09-15T07:48:51.469Z,15.72
2022-09-15T07:51:19.457Z,15.78
2022-09-15T07:53:47.979Z,15.53
2022-09-15T07:56:15.455Z,15.92
2022-09-15T07:58:42.046Z,16.03
2022-09-15T08:01:14.912Z,16.18
2022-09-15T08:03:43.064Z,16.36
2022-09-15T08:06:10.648Z,16.11
2022-09-15T08:08:38.840Z,16.52
2022-09-15T08:11:11.480Z,16.51
2022-09-15T08:13:40.951Z,16.00
2022-09-15T08:16:09.252Z,16.53
2022-09-15T08:18:36.660Z,16.62
2022-09-15T08:21:07.436Z,16.18
2022-09-15T08:23:34.211Z,16.74
2022-09-15T08:26:01.259Z,17.03
2022-09-15T08:28:28.083Z,17.25
2022-09-15T08:31:02.545Z,17.58
2022-09-15T08:33:30.107Z,17.53
2022-09-15T08:36:01.979Z,17.37
2022-09-15T08:38:28.743Z,16.97
2022-09-15T08:41:19.034Z,17.47
2022-09-15T08:43:53.387Z,17.46
2022-09-15T08:46:30.380Z,16.52
2022-09-15T08:49:50.077Z,18.05
2022-09-15T08:52:39.250Z,17.93
2022-09-15T08:55:17.767Z,18.00
2022-09-15T08:57:45.047Z,18.43
2022-09-15T09:00:16.578Z,18.53
2022-09-15T09:02:58.860Z,18.62
2022-09-15T09:05:40.717Z,18.91
2022-09-15T09:09:01.372Z,19.16
2022-09-15T09:11:57.063Z,19.37
2022-09-15T09:14:47.425Z,18.80
2022-09-15T09:17:35.356Z,18.55
2022-09-15T09:20:14.242Z,17.75
2022-09-15T09:22:45.137Z,19.10
2022-09-15T09:25:27.370Z,19.15
2022-09-15T09:27:58.321Z,19.13
2022-09-15T09:30:29.751Z,19.62
2022-09-15T09:33:34.371Z,19.84
2022-09-15T09:36:02.197Z,19.88
2022-09-15T09:38:35.029Z,18.40
2022-09-15T09:41:04.875Z,19.24
2022-09-15T09:43:32.808Z,17.75
2022-09-15T09:45:59.813Z,19.06
2022-09-15T09:48:28.511Z,18.84
2022-09-15T09:50:55.294Z,18.40
2022-09-15T09:53:31.155Z,19.36
2022-09-15T09:56:22.947Z,19.60
2022-09-15T09:58:49.834Z,19.98
2022-09-15T10:01:24.548Z,19.59
2022-09-15T10:04:12.458Z,17.81
2022-09-15T10:06:40.083Z,18.56
2022-09-15T10:09:16.411Z,18.77
2022-09-15T10:11:54.822Z,18.40
2022-09-15T10:14:39.835Z,18.12
2022-09-15T10:17:10.602Z,17.87
2022-09-15T10:19:42.865Z,18.15
2022-09-15T10:22:10.257Z,18.15
2022-09-15T10:24:39.890Z,17.92
2022-09-15T10:27:17.453Z,17.86
2022-09-15T10:29:43.997Z,17.91
2022-09-15T10:32:25.213Z,18.60
2022-09-15T10:35:00.545Z,18.93
2022-09-15T10:37:52.175Z,18.76
2022-09-15T10:40:33.048Z,19.08
2022-09-15T10:43:30.754Z,19.36
2022-09-15T10:46:13.973Z,19.79
2022-09-15T10:48:45.554Z,19.61
2022-09-15T10:51:18.119Z,19.09
2022-09-15T10:54:20.198Z,18.74
2022-09-15T10:56:51.974Z,18.86
2022-09-15T10:59:44.248Z,18.71
2022-09-15T11:02:31.623Z,18.71
2022-09-15T11:05:12.982Z,19.34
2022-09-15T11:08:17.068Z,19.75
2022-09-15T11:11:04.992Z,20.26
2022-09-15T11:13:41.084Z,20.90
2022-09-15T11:16:35.756Z,21.03
2022-09-15T11:19:31.171Z,21.21
2022-09-15T11:22:15.945Z,21.13
2022-09-15T11:25:13.381Z,21.33
2022-09-15T11:27:54.094Z,21.33
2022-09-15T11:30:25.550Z,22.41
2022-09-15T11:33:00.456Z,22.39
2022-09-15T11:35:33.792Z,22.97
2022-09-15T11:38:21.314Z,22.83
2022-09-15T11:40:55.271Z,24.03
2022-09-15T11:43:34.027Z,24.63
2022-09-15T11:46:07.254Z,25.40
2022-09-15T11:48:43.462Z,25.13
2022-09-15T11:51:13.297Z,26.40
2022-09-15T11:53:56.065Z,26.83
2022-09-15T11:56:28.934Z,25.92
2022-09-15T11:59:33.482Z,25.91
2022-09-15T12:02:42.478Z,24.66
2022-09-15T12:05:58.730Z,27.07
2022-09-15T12:08:37.445Z,25.71
2022-09-15T12:11:10.813Z,24.85
2022-09-15T12:13:40.051Z,28.63
2022-09-15T12:16:07.313Z,30.52
2022-09-15T12:18:53.263Z,32.94
2022-09-15T12:22:08.877Z,31.64
2022-09-15T12:24:43.942Z,30.42
2022-09-15T12:27:20.987Z,26.89
2022-09-15T12:29:52.278Z,26.48
2022-09-15T12:32:23.228Z,25.78
2022-09-15T12:35:24.697Z,23.95
2022-09-15T12:37:57.302Z,22.01
2022-09-15T12:40:34.888Z,21.00
2022-09-15T12:43:20.947Z,21.49
2022-09-15T12:46:00.216Z,20.53
2022-09-15T12:48:31.092Z,20.46
2022-09-15T12:51:07.433Z,20.31
2022-09-15T12:53:55.176Z,19.89
2022-09-15T12:56:25.524Z,19.20
2022-09-15T12:58:53.464Z,18.00
2022-09-15T13:01:23.194Z,19.04
2022-09-15T13:03:49.739Z,18.95
2022-09-15T13:06:30.200Z,18.86
2022-09-15T13:09:03.083Z,18.96
2022-09-15T13:14:24.532Z,18.90
2022-09-15T13:16:59.689Z,17.63
2022-09-15T13:19:41.461Z,18.56
2022-09-15T13:22:10.947Z,18.50
2022-09-15T13:25:02.351Z,18.46
2022-09-15T13:27:37.064Z,18.47
2022-09-15T13:30:36.340Z,18.38
2022-09-15T13:40:15.508Z,18.23
2022-09-15T13:42:59.543Z,18.17
2022-09-15T13:45:37.720Z,18.10
2022-09-15T13:48:29.475Z,17.71
2022-09-15T13:51:02.646Z,16.87
2022-09-15T13:53:47.400Z,16.67
2022-09-15T13:56:22.181Z,17.80
2022-09-15T13:59:01.549Z,17.70
2022-09-15T14:01:39.024Z,17.73
2022-09-15T14:04:11.106Z,17.71
2022-09-15T14:06:40.537Z,17.72
2022-09-15T14:09:18.013Z,17.70
2022-09-15T14:11:48.703Z,17.66
2022-09-15T14:14:27.542Z,17.69
2022-09-15T14:16:56.489Z,17.68
2022-09-15T14:19:39.718Z,17.66
2022-09-15T14:22:26.133Z,17.66
2022-09-15T14:24:53.229Z,17.25
2022-09-15T14:27:24.362Z,17.50
2022-09-15T14:29:55.172Z,17.53
2022-09-15T14:32:22.127Z,17.50
2022-09-15T14:34:49.056Z,17.53
2022-09-15T14:37:34.962Z,17.41
2022-09-15T14:40:16.592Z,17.37
2022-09-15T14:42:43.270Z,17.56
2022-09-15T14:48:01.404Z,17.54
2022-09-15T14:50:32.815Z,17.50
2022-09-15T14:53:05.681Z,17.47
2022-09-15T14:55:43.304Z,17.44
2022-09-15T14:58:21.776Z,17.45
2022-09-15T15:00:57.599Z,17.46
2022-09-15T15:03:34.268Z,17.09
2022-09-15T15:09:00.546Z,17.46
2022-09-15T15:11:29.018Z,17.11
2022-09-15T15:13:56.997Z,17.47
2022-09-15T15:16:28.537Z,17.42
2022-09-15T15:18:57.084Z,17.00
2022-09-15T15:21:41.925Z,17.32
2022-09-15T15:24:17.295Z,17.33
2022-09-15T15:26:49.851Z,17.32
2022-09-15T15:29:38.350Z,17.32
2022-09-15T15:32:06.673Z,16.97
2022-09-15T15:34:33.972Z,17.33
2022-09-15T15:37:05.030Z,16.96
2022-09-15T15:39:31.870Z,17.32
2022-09-15T15:42:02.108Z,17.26
2022-09-15T15:44:30.190Z,17.20
2022-09-15T15:47:19.647Z,17.18
2022-09-15T15:50:11.756Z,17.18
2022-09-15T15:52:33.575Z,17.14
2022-09-15T15:55:00.279Z,17.09
2022-09-15T15:57:30.247Z,17.04
2022-09-15T15:59:58.916Z,16.76
2022-09-15T16:02:26.350Z,16.75
2022-09-15T16:04:52.968Z,16.92
2022-09-15T16:07:23.015Z,16.61
2022-09-15T16:09:50.321Z,16.88
2022-09-15T16:12:16.893Z,16.89
2022-09-15T16:14:43.343Z,16.90
2022-09-15T16:17:10.792Z,16.39
2022-09-15T16:19:37.305Z,16.77
2022-09-15T16:22:04.107Z,16.88
2022-09-15T16:24:31.082Z,16.88
2022-09-15T16:26:58.469Z,16.88
2022-09-15T16:29:29.175Z,16.87
2022-09-15T16:31:55.696Z,16.69
2022-09-15T16:34:22.585Z,16.45
2022-09-15T16:36:49.139Z,16.84
2022-09-15T16:39:15.659Z,16.86
2022-09-15T16:41:42.507Z,16.47
2022-09-15T16:44:17.994Z,16.82
2022-09-15T16:46:44.794Z,15.52
2022-09-15T16:49:11.327Z,16.65
2022-09-15T16:51:37.808Z,16.27
2022-09-15T16:54:14.166Z,16.22
2022-09-15T16:56:41.488Z,16.22
2022-09-15T16:59:09.256Z,15.98
2022-09-15T17:01:35.762Z,16.29
2022-09-15T17:04:03.759Z,16.34
2022-09-15T17:06:30.975Z,16.15
2022-09-15T17:08:57.559Z,15.83
2022-09-15T17:11:25.451Z,16.05
2022-09-15T17:13:52.000Z,15.52
2022-09-15T17:16:19.702Z,16.26
2022-09-15T17:18:46.903Z,16.23
2022-09-15T17:21:15.994Z,16.05
2022-09-15T17:23:49.904Z,15.77
2022-09-15T17:26:23.958Z,16.25
2022-09-15T17:28:52.235Z,16.22
2022-09-15T17:31:23.703Z,16.21
2022-09-15T17:33:51.173Z,16.19
2022-09-15T17:36:19.522Z,16.21
2022-09-15T17:38:49.018Z,16.21
2022-09-15T17:41:18.867Z,15.69
2022-09-15T17:43:46.018Z,16.17
2022-09-15T17:46:12.728Z,16.15
2022-09-15T17:48:39.999Z,15.92
2022-09-15T17:51:07.763Z,16.12
2022-09-15T17:53:34.342Z,16.11
2022-09-15T17:56:01.082Z,15.68
2022-09-15T17:58:29.946Z,15.18
2022-09-15T18:00:57.472Z,15.63
2022-09-15T18:03:34.766Z,15.97
2022-09-15T18:06:05.251Z,15.58
2022-09-15T18:08:33.190Z,15.57
2022-09-15T18:11:00.843Z,15.31
2022-09-15T18:13:29.736Z,15.85
2022-09-15T18:15:57.290Z,15.62
2022-09-15T18:18:27.230Z,15.74
2022-09-15T18:20:55.744Z,15.15
2022-09-15T18:23:24.893Z,15.56
2022-09-15T18:25:52.053Z,15.61
2022-09-15T18:28:19.405Z,15.51
2022-09-15T18:30:49.094Z,15.35
2022-09-15T18:33:19.289Z,14.97
2022-09-15T18:35:46.715Z,15.19
2022-09-15T18:38:13.313Z,15.38
2022-09-15T18:40:45.228Z,15.32
2022-09-15T18:43:12.082Z,14.98
2022-09-15T18:45:40.270Z,15.06
2022-09-15T18:48:11.905Z,14.45
2022-09-15T18:50:39.531Z,15.10
2022-09-15T18:53:06.383Z,14.33
2022-09-15T18:55:32.938Z,14.90
2022-09-15T18:58:01.080Z,14.33
2022-09-15T19:00:28.859Z,15.03
2022-09-15T19:02:58.359Z,15.01
2022-09-15T19:05:26.731Z,14.99
2022-09-15T19:07:53.479Z,14.68
2022-09-15T19:10:20.365Z,14.93
2022-09-15T19:12:46.997Z,15.04
2022-09-15T19:15:14.847Z,14.99
2022-09-15T19:17:42.488Z,14.95
2022-09-15T19:20:12.513Z,14.78
2022-09-15T19:22:40.003Z,14.99
2022-09-15T19:25:08.392Z,14.38
2022-09-15T19:27:37.606Z,14.99
2022-09-15T19:30:05.625Z,14.91
2022-09-15T19:32:32.662Z,14.62
2022-09-15T19:34:59.334Z,14.71
2022-09-15T19:37:26.065Z,14.63
2022-09-15T19:39:59.017Z,14.57
2022-09-15T19:42:40.371Z,14.53
2022-09-15T19:45:15.604Z,14.49
2022-09-15T19:47:42.091Z,14.28
2022-09-15T19:50:11.217Z,13.20
2022-09-15T19:52:38.118Z,14.35
2022-09-15T19:55:06.773Z,14.09
2022-09-15T19:57:42.107Z,14.30
2022-09-15T20:00:54.500Z,14.27
2022-09-15T20:03:27.021Z,13.61
2022-09-15T20:05:56.506Z,14.22
2022-09-15T20:08:23.509Z,13.78
2022-09-15T20:10:50.742Z,14.01
2022-09-15T20:13:18.462Z,14.09
2022-09-15T20:15:56.141Z,14.06
2022-09-15T20:18:23.502Z,14.05
2022-09-15T20:20:50.208Z,14.01
2022-09-15T20:23:17.321Z,14.00
2022-09-15T20:25:55.158Z,12.86
2022-09-15T20:28:22.559Z,13.60
2022-09-15T20:31:11.727Z,13.94
2022-09-15T20:33:40.558Z,13.93
2022-09-15T20:36:10.492Z,13.41
2022-09-15T20:38:38.280Z,13.32
2022-09-15T20:41:07.333Z,13.78
2022-09-15T20:43:38.849Z,13.77
2022-09-15T20:46:08.074Z,13.76
2022-09-15T20:48:39.145Z,13.71
2022-09-15T20:51:12.647Z,13.53
2022-09-15T20:53:41.368Z,13.71
2022-09-15T20:56:08.437Z,13.09
2022-09-15T20:58:36.965Z,13.72
2022-09-15T21:01:06.268Z,13.27
2022-09-15T21:03:33.447Z,13.32
2022-09-15T21:06:01.782Z,13.49
2022-09-15T21:08:29.180Z,13.43
2022-09-15T21:10:56.403Z,13.41
2022-09-15T21:13:23.131Z,12.85
2022-09-15T21:16:00.804Z,13.35
2022-09-15T21:18:29.331Z,13.34
2022-09-15T21:21:01.337Z,13.36
2022-09-15T21:23:34.384Z,13.25
2022-09-15T21:26:28.891Z,13.00
2022-09-15T21:28:57.199Z,12.72
2022-09-15T21:31:29.912Z,12.69
2022-09-15T21:33:58.044Z,13.15
2022-09-15T21:36:29.714Z,13.01
2022-09-15T21:38:58.640Z,11.74
2022-09-15T21:41:31.652Z,12.49
2022-09-15T21:43:59.258Z,12.96
2022-09-15T21:46:28.552Z,12.94
2022-09-15T21:48:56.534Z,12.95
2022-09-15T21:51:25.157Z,12.55
2022-09-15T21:53:53.380Z,12.96
2022-09-15T21:56:20.725Z,12.55
2022-09-15T21:58:47.711Z,12.42
2022-09-15T22:01:18.959Z,11.68
2022-09-15T22:03:54.129Z,12.32
2022-09-15T22:06:23.353Z,12.91
2022-09-15T22:11:36.420Z,12.52
2022-09-15T22:14:57.534Z,12.93
2022-09-15T22:17:51.141Z,12.88
2022-09-15T22:20:18.724Z,12.86
2022-09-15T22:23:11.847Z,12.81
2022-09-15T22:25:38.993Z,12.79
2022-09-15T22:28:05.635Z,12.79
2022-09-15T22:30:32.269Z,12.79
2022-09-15T22:32:58.820Z,12.42
2022-09-15T22:35:25.698Z,12.74
2022-09-15T22:37:52.411Z,12.74
2022-09-15T22:40:19.039Z,12.48
2022-09-15T22:42:45.783Z,12.56
2022-09-15T22:45:12.490Z,12.75
2022-09-15T22:47:39.165Z,12.74
2022-09-15T22:50:06.187Z,11.87
2022-09-15T22:52:32.833Z,12.20
2022-09-15T22:54:59.452Z,12.05
2022-09-15T22:57:26.017Z,12.63
2022-09-15T22:59:52.656Z,12.37
2022-09-15T23:02:19.353Z,12.26
2022-09-15T23:04:45.971Z,12.74
2022-09-15T23:07:12.526Z,12.71
2022-09-15T23:09:39.604Z,12.31
2022-09-15T23:12:07.879Z,11.92
2022-09-15T23:14:34.613Z,12.47
2022-09-15T23:17:01.083Z,12.47
2022-09-15T23:19:27.569Z,12.17
2022-09-15T23:21:54.180Z,12.08
2022-09-15T23:24:20.915Z,12.33
2022-09-15T23:26:47.451Z,12.30
2022-09-15T23:29:14.034Z,11.76
2022-09-15T23:31:40.595Z,12.38
2022-09-15T23:34:07.210Z,12.39
2022-09-15T23:36:33.851Z,12.38
2022-09-15T23:39:00.328Z,11.74
2022-09-15T23:41:26.892Z,12.42
2022-09-15T23:43:53.407Z,12.42
2022-09-15T23:46:20.037Z,12.43
2022-09-15T23:48:46.651Z,12.44
2022-09-15T23:51:16.084Z,10.95
2022-09-15T23:53:42.685Z,12.50
2022-09-15T23:56:09.363Z,11.71
2022-09-15T23:58:36.085Z,12.34
